Accueil
METAR-TAF:

METAR-TAF

Aéroports :

Yüksekova, Turquie

latitude: 37-33-06N, longitude: 44-14-01E, altitude: 1950 m

Observation

Le bulletin a été fait il y a 9 heures et 47 minutes, à 11:50 UTC
Vent 2 kt de nord-ouest
Température -15°C
Humidité 85%
Pression 1022 hPa
Visibilité: 2600 m
Nuages épars à une hauteur de 600 ft
bancs de brouillard

METAR: LTCW 201150Z 31002KT 2600 R11/0750U R29/P1500U BCFG SCT006 M15/M17 Q1022

Heure: 00:37 (21:37 UTC)

Prévision

Le bulletin a été fait il y a 1 heure et 57 minutes, à 19:40 UTC
Prévision valable du 20 à 21 UTC au 21 à 06 UTC
Vent 2 kt de direction variable
Visibilité: 1100 m
Nuages épars à une hauteur de 3500 ft
brume

TAF: LTCW 201940Z 2021/2106 VRB02KT 1100 BR SCT035

Observations et prévisions météorologiques de plus de 4000 aéroports (messages METAR et TAF).

Les stations disponibles sont représentées par des disques jaunes et rouges sur la carte.

Passer la souris dessus pour voir le nom de la station.

Cliquer dessus pour voir les observations et prévisions météorologiques.

Pour changer de carte: cliquez sur les boutons verts avec une croix noire pour zoomer, sur le bouton vert avec un tiret pour effectuer un zoom arrière, ou sur les flèches vertes pour les cartes adjacentes.


METAR-TAF: